Time,TemperatureF,DewpointF,PressureIn,WindDirection,WindDirectionDegrees,WindSpeedMPH,WindSpeedGustMPH,Humidity,HourlyPrecipIn,Conditions,Clouds,dailyrainin,SoftwareType,DateUTC
2013-09-21 00:00:00,46.0,42.9,30.32,ESE,112,1.0,15.0,89,0.00,,,0.00,Wunderground v.1.15,2013-09-21 03:00:00,
2013-09-21 00:10:00,46.0,42.9,30.32,SE,141,1.0,1.0,89,0.00,,,0.00,Wunderground v.1.15,2013-09-21 03:10:00,
2013-09-21 00:20:00,45.7,42.6,30.31,South,174,0.0,15.0,89,0.00,,,0.00,Wunderground v.1.15,2013-09-21 03:20:00,
2013-09-21 00:30:00,45.5,42.7,30.31,SSW,197,0.0,15.0,90,0.00,,,0.00,Wunderground v.1.15,2013-09-21 03:30:00,
2013-09-21 00:40:00,45.5,42.7,30.31,SSW,197,0.0,15.0,90,0.00,,,0.00,Wunderground v.1.15,2013-09-21 03:40:00,
2013-09-21 00:50:00,45.3,42.5,30.31,ESE,110,0.0,15.0,90,0.00,,,0.00,Wunderground v.1.15,2013-09-21 03:50:00,
2013-09-21 01:00:00,45.0,42.2,30.31,ESE,110,0.0,15.0,90,0.00,,,0.00,Wunderground v.1.15,2013-09-21 04:00:00,
2013-09-21 01:10:00,44.9,42.4,30.31,ESE,110,0.0,15.0,91,0.00,,,0.00,Wunderground v.1.15,2013-09-21 04:10:00,
2013-09-21 01:20:00,44.9,42.4,30.31,ESE,110,0.0,15.0,91,0.00,,,0.00,Wunderground v.1.15,2013-09-21 04:20:00,
2013-09-21 01:30:00,44.7,42.5,30.31,ESE,110,0.0,15.0,92,0.00,,,0.00,Wunderground v.1.15,2013-09-21 04:30:00,
2013-09-21 01:40:00,44.2,42.0,30.32,ESE,110,0.0,15.0,92,0.00,,,0.00,Wunderground v.1.15,2013-09-21 04:40:00,
2013-09-21 01:50:00,44.4,42.5,30.31,ESE,110,0.0,15.0,93,0.00,,,0.00,Wunderground v.1.15,2013-09-21 04:50:00,
2013-09-21 02:00:00,44.6,42.7,30.30,ESE,110,0.0,15.0,93,0.00,,,0.00,Wunderground v.1.15,2013-09-21 05:00:00,
2013-09-21 02:10:00,45.3,43.7,30.30,ESE,110,0.0,15.0,94,0.00,,,0.00,Wunderground v.1.15,2013-09-21 05:10:00,
2013-09-21 02:20:00,45.9,44.0,30.30,SE,131,0.0,15.0,93,0.00,,,0.00,Wunderground v.1.15,2013-09-21 05:20:00,
2013-09-21 02:30:00,46.4,44.5,30.29,SE,131,0.0,15.0,93,0.00,,,0.00,Wunderground v.1.15,2013-09-21 05:30:00,
2013-09-21 02:40:00,46.7,44.8,30.29,SE,131,0.0,15.0,93,0.00,,,0.00,Wunderground v.1.15,2013-09-21 05:40:00,
2013-09-21 02:50:00,47.0,44.8,30.29,SE,131,0.0,15.0,92,0.00,,,0.00,Wunderground v.1.15,2013-09-21 05:50:00,
2013-09-21 03:00:00,47.2,45.0,30.28,SE,131,0.0,15.0,92,0.00,,,0.00,Wunderground v.1.15,2013-09-21 06:00:00,
2013-09-21 03:10:00,47.2,44.7,30.28,ESE,115,0.0,15.0,91,0.00,,,0.00,Wunderground v.1.15,2013-09-21 06:10:00,
2013-09-21 03:20:00,47.1,44.6,30.27,ESE,115,0.0,15.0,91,0.00,,,0.00,Wunderground v.1.15,2013-09-21 06:20:00,
2013-09-21 03:30:00,47.2,45.0,30.27,ESE,115,0.0,15.0,92,0.00,,,0.00,Wunderground v.1.15,2013-09-21 06:30:00,
2013-09-21 03:40:00,47.5,45.3,30.27,ESE,114,0.0,15.0,92,0.00,,,0.00,Wunderground v.1.15,2013-09-21 06:40:00,
2013-09-21 03:50:00,47.5,45.3,30.27,SSE,150,1.0,15.0,92,0.00,,,0.00,Wunderground v.1.15,2013-09-21 06:50:00,
2013-09-21 04:00:00,47.5,45.3,30.26,South,183,1.0,15.0,92,0.00,,,0.00,Wunderground v.1.15,2013-09-21 07:00:00,
2013-09-21 04:10:00,47.7,45.8,30.27,South,191,1.0,1.0,93,0.00,,,0.00,Wunderground v.1.15,2013-09-21 07:10:00,
2013-09-21 04:20:00,47.8,45.9,30.27,ESE,117,0.0,15.0,93,0.00,,,0.00,Wunderground v.1.15,2013-09-21 07:20:00,
2013-09-21 04:30:00,47.7,45.8,30.27,SE,146,0.0,15.0,93,0.00,,,0.00,Wunderground v.1.15,2013-09-21 07:30:00,
2013-09-21 04:40:00,48.5,46.9,30.27,SE,141,1.0,15.0,94,0.00,,,0.00,Wunderground v.1.15,2013-09-21 07:40:00,
2013-09-21 04:50:00,49.2,47.5,30.27,SE,143,2.0,15.0,94,0.00,,,0.00,Wunderground v.1.15,2013-09-21 07:50:00,
2013-09-21 05:00:00,49.8,48.1,30.26,SSE,163,2.0,15.0,94,0.00,,,0.00,Wunderground v.1.15,2013-09-21 08:00:00,
2013-09-21 05:10:00,50.3,48.6,30.26,SSE,158,3.0,3.0,94,0.00,,,0.00,Wunderground v.1.15,2013-09-21 08:10:00,
2013-09-21 05:20:00,50.9,49.2,30.26,East,79,3.0,15.0,94,0.00,,,0.00,Wunderground v.1.15,2013-09-21 08:20:00,
2013-09-21 05:30:00,51.6,49.9,30.26,South,188,4.0,4.0,94,0.00,,,0.00,Wunderground v.1.15,2013-09-21 08:30:00,
2013-09-21 05:40:00,52.2,50.2,30.25,SE,131,4.0,15.0,93,0.00,,,0.00,Wunderground v.1.15,2013-09-21 08:40:00,
2013-09-21 05:50:00,52.5,50.5,30.25,South,187,4.0,4.0,93,0.00,,,0.00,Wunderground v.1.15,2013-09-21 08:50:00,
2013-09-21 06:00:00,52.7,50.7,30.25,South,183,4.0,4.0,93,0.00,,,0.00,Wunderground v.1.15,2013-09-21 09:00:00,
2013-09-21 06:10:00,52.9,50.9,30.25,East,100,4.0,15.0,93,0.00,,,0.00,Wunderground v.1.15,2013-09-21 09:10:00,
2013-09-21 06:20:00,53.1,51.1,30.26,SSE,150,4.0,15.0,93,0.00,,,0.00,Wunderground v.1.15,2013-09-21 09:20:00,
2013-09-21 06:30:00,53.2,51.2,30.26,SSW,193,4.0,15.0,93,0.00,,,0.00,Wunderground v.1.15,2013-09-21 09:30:00,
2013-09-21 06:40:00,53.4,51.1,30.25,SE,131,5.0,15.0,92,0.00,,,0.00,Wunderground v.1.15,2013-09-21 09:40:00,
2013-09-21 06:50:00,53.5,51.2,30.25,SSW,198,5.0,5.0,92,0.00,,,0.00,Wunderground v.1.15,2013-09-21 09:50:00,
2013-09-21 07:00:00,53.7,51.4,30.25,SE,131,5.0,5.0,92,0.00,,,0.00,Wunderground v.1.15,2013-09-21 10:00:00,
2013-09-21 07:10:00,53.9,51.6,30.26,ESE,120,5.0,15.0,92,0.00,,,0.00,Wunderground v.1.15,2013-09-21 10:10:00,
2013-09-21 07:20:00,54.2,51.6,30.26,SE,140,5.0,15.0,91,0.00,,,0.00,Wunderground v.1.15,2013-09-21 10:20:00,
2013-09-21 07:30:00,54.5,51.9,30.26,SE,139,5.0,15.0,91,0.00,,,0.00,Wunderground v.1.15,2013-09-21 10:30:00,
2013-09-21 07:40:00,54.8,52.2,30.25,ESE,114,3.0,15.0,91,0.00,,,0.00,Wunderground v.1.15,2013-09-21 10:40:00,
2013-09-21 07:50:00,55.3,52.7,30.26,SSE,151,4.0,4.0,91,0.00,,,0.00,Wunderground v.1.15,2013-09-21 10:50:00,
2013-09-21 08:00:00,55.7,53.1,30.25,SE,136,4.0,15.0,91,0.00,,,0.00,Wunderground v.1.15,2013-09-21 11:00:00,
2013-09-21 08:10:00,56.1,53.2,30.25,SE,128,5.0,15.0,90,0.00,,,0.00,Wunderground v.1.15,2013-09-21 11:10:00,
2013-09-21 08:20:00,56.4,53.5,30.25,SE,146,5.0,15.0,90,0.00,,,0.00,Wunderground v.1.15,2013-09-21 11:20:00,
2013-09-21 08:30:00,56.8,53.9,30.25,South,183,4.0,15.0,90,0.00,,,0.00,Wunderground v.1.15,2013-09-21 11:30:00,
2013-09-21 08:40:00,57.3,54.1,30.25,SSE,149,5.0,5.0,89,0.00,,,0.00,Wunderground v.1.15,2013-09-21 11:40:00,
2013-09-21 08:50:00,57.9,54.4,30.24,SE,142,5.0,15.0,88,0.00,,,0.00,Wunderground v.1.15,2013-09-21 11:50:00,
2013-09-21 09:00:00,58.1,54.2,30.24,SSE,159,7.0,15.0,87,0.00,,,0.00,Wunderground v.1.15,2013-09-21 12:00:00,
2013-09-21 09:10:00,58.8,54.6,30.24,SE,141,7.0,7.0,86,0.00,,,0.00,Wunderground v.1.15,2013-09-21 12:10:00,
2013-09-21 09:20:00,59.0,54.8,30.24,SSE,150,6.0,15.0,86,0.00,,,0.00,Wunderground v.1.15,2013-09-21 12:20:00,
2013-09-21 09:30:00,59.3,55.1,30.24,SW,215,7.0,7.0,86,0.00,,,0.00,Wunderground v.1.15,2013-09-21 12:30:00,
2013-09-21 09:40:00,59.4,55.2,30.24,South,180,7.0,7.0,86,0.00,,,0.00,Wunderground v.1.15,2013-09-21 12:40:00,
2013-09-21 09:50:00,60.2,55.7,30.24,SSW,211,7.0,15.0,85,0.00,,,0.00,Wunderground v.1.15,2013-09-21 12:50:00,
2013-09-21 10:00:00,60.7,56.2,30.23,South,179,8.0,8.0,85,0.00,,,0.00,Wunderground v.1.15,2013-09-21 13:00:00,
2013-09-21 10:10:00,60.9,56.0,30.23,SE,124,8.0,15.0,84,0.00,,,0.00,Wunderground v.1.15,2013-09-21 13:10:00,
2013-09-21 10:20:00,61.4,56.5,30.23,SSW,205,9.0,15.0,84,0.00,,,0.00,Wunderground v.1.15,2013-09-21 13:20:00,
2013-09-21 10:30:00,61.6,57.0,30.22,South,181,9.0,15.0,85,0.00,,,0.00,Wunderground v.1.15,2013-09-21 13:30:00,
2013-09-21 10:40:00,62.7,57.5,30.22,SSE,162,7.0,15.0,83,0.00,,,0.00,Wunderground v.1.15,2013-09-21 13:40:00,
2013-09-21 10:50:00,62.6,56.7,30.22,SSE,165,10.0,10.0,81,0.00,,,0.00,Wunderground v.1.15,2013-09-21 13:50:00,
2013-09-21 11:00:00,62.7,56.8,30.21,South,176,10.0,15.0,81,0.00,,,0.00,Wunderground v.1.15,2013-09-21 14:00:00,
2013-09-21 11:10:00,62.7,57.1,30.21,South,190,10.0,10.0,82,0.00,,,0.00,Wunderground v.1.15,2013-09-21 14:10:00,
2013-09-21 11:20:00,63.0,56.7,30.20,SE,142,11.0,15.0,80,0.00,,,0.00,Wunderground v.1.15,2013-09-21 14:20:00,
2013-09-21 11:30:00,63.2,56.6,30.20,South,174,12.0,16.0,79,0.00,,,0.00,Wunderground v.1.15,2013-09-21 14:30:00,
2013-09-21 11:40:00,63.8,57.2,30.20,South,190,10.0,15.0,79,0.00,,,0.00,Wunderground v.1.15,2013-09-21 14:40:00,
2013-09-21 11:50:00,64.0,57.4,30.20,South,170,12.0,12.0,79,0.00,,,0.00,Wunderground v.1.15,2013-09-21 14:50:00,
2013-09-21 12:00:00,64.0,57.7,30.19,SW,218,10.0,15.0,80,0.00,,,0.00,Wunderground v.1.15,2013-09-21 15:00:00,
2013-09-21 12:10:00,64.3,57.6,30.19,SSE,160,10.0,15.0,79,0.00,,,0.00,Wunderground v.1.15,2013-09-21 15:10:00,
2013-09-21 12:20:00,64.5,57.5,30.18,SE,140,11.0,15.0,78,0.00,,,0.00,Wunderground v.1.15,2013-09-21 15:20:00,
2013-09-21 12:30:00,64.9,57.9,30.18,South,169,10.0,15.0,78,0.00,,,0.00,Wunderground v.1.15,2013-09-21 15:30:00,
2013-09-21 12:40:00,65.0,58.3,30.17,South,180,11.0,16.0,79,0.00,,,0.00,Wunderground v.1.15,2013-09-21 15:40:00,
2013-09-21 12:50:00,65.8,58.4,30.17,SSW,199,10.0,15.0,77,0.00,,,0.00,Wunderground v.1.15,2013-09-21 15:50:00,
2013-09-21 13:00:00,65.9,58.5,30.17,SSE,163,10.0,15.0,77,0.00,,,0.00,Wunderground v.1.15,2013-09-21 16:00:00,
2013-09-21 13:10:00,66.7,59.3,30.16,South,186,9.0,9.0,77,0.00,,,0.00,Wunderground v.1.15,2013-09-21 16:10:00,
2013-09-21 13:20:00,66.6,59.5,30.15,SSW,195,10.0,10.0,78,0.00,,,0.00,Wunderground v.1.15,2013-09-21 16:20:00,
2013-09-21 13:30:00,66.8,59.0,30.15,SSE,153,10.0,15.0,76,0.00,,,0.00,Wunderground v.1.15,2013-09-21 16:30:00,
2013-09-21 13:40:00,66.9,58.7,30.15,SSE,168,10.0,10.0,75,0.00,,,0.00,Wunderground v.1.15,2013-09-21 16:40:00,
2013-09-21 13:50:00,67.5,59.7,30.14,SSE,160,9.0,9.0,76,0.00,,,0.00,Wunderground v.1.15,2013-09-21 16:50:00,
2013-09-21 14:00:00,68.0,59.4,30.14,SSE,165,10.0,15.0,74,0.00,,,0.00,Wunderground v.1.15,2013-09-21 17:00:00,
2013-09-21 14:10:00,67.8,58.8,30.13,South,174,10.0,15.0,73,0.00,,,0.00,Wunderground v.1.15,2013-09-21 17:10:00,
2013-09-21 14:20:00,68.1,59.1,30.13,SSE,153,11.0,11.0,73,0.00,,,0.00,Wunderground v.1.15,2013-09-21 17:20:00,
2013-09-21 14:30:00,68.4,60.2,30.13,South,179,10.0,10.0,75,0.00,,,0.00,Wunderground v.1.15,2013-09-21 17:30:00,
2013-09-21 14:40:00,68.6,59.2,30.12,South,169,10.0,10.0,72,0.00,,,0.00,Wunderground v.1.15,2013-09-21 17:40:00,
2013-09-21 14:50:00,69.2,59.4,30.12,SSE,150,9.0,15.0,71,0.00,,,0.00,Wunderground v.1.15,2013-09-21 17:50:00,
2013-09-21 15:00:00,69.2,59.8,30.11,South,173,11.0,15.0,72,0.00,,,0.00,Wunderground v.1.15,2013-09-21 18:00:00,
2013-09-21 15:10:00,69.7,59.5,30.11,SSW,193,9.0,15.0,70,0.00,,,0.00,Wunderground v.1.15,2013-09-21 18:10:00,
2013-09-21 15:20:00,69.6,59.8,30.10,South,182,12.0,15.0,71,0.00,,,0.00,Wunderground v.1.15,2013-09-21 18:20:00,
2013-09-21 15:30:00,69.4,59.6,30.10,ESE,120,13.0,20.0,71,0.00,,,0.00,Wunderground v.1.15,2013-09-21 18:30:00,
2013-09-21 15:40:00,69.6,59.8,30.10,SE,145,12.0,12.0,71,0.00,,,0.00,Wunderground v.1.15,2013-09-21 18:40:00,
2013-09-21 15:50:00,70.1,60.3,30.09,SSW,198,9.0,15.0,71,0.00,,,0.00,Wunderground v.1.15,2013-09-21 18:50:00,
2013-09-21 16:00:00,70.1,59.9,30.09,SE,124,10.0,10.0,70,0.00,,,0.00,Wunderground v.1.15,2013-09-21 19:00:00,
2013-09-21 16:10:00,69.9,60.1,30.08,SSE,165,10.0,10.0,71,0.00,,,0.00,Wunderground v.1.15,2013-09-21 19:10:00,
2013-09-21 16:20:00,70.0,59.8,30.08,SSE,164,10.0,15.0,70,0.00,,,0.00,Wunderground v.1.15,2013-09-21 19:20:00,
2013-09-21 16:30:00,70.1,59.9,30.08,SSE,157,9.0,9.0,70,0.00,,,0.00,Wunderground v.1.15,2013-09-21 19:30:00,
2013-09-21 16:40:00,69.8,59.2,30.08,South,181,12.0,15.0,69,0.00,,,0.00,Wunderground v.1.15,2013-09-21 19:40:00,
2013-09-21 16:50:00,70.0,59.4,30.08,South,175,8.0,15.0,69,0.00,,,0.00,Wunderground v.1.15,2013-09-21 19:50:00,
2013-09-21 17:00:00,70.1,59.9,30.08,ESE,111,8.0,8.0,70,0.00,,,0.00,Wunderground v.1.15,2013-09-21 20:00:00,
2013-09-21 17:10:00,70.0,59.8,30.07,SE,132,8.0,8.0,70,0.00,,,0.00,Wunderground v.1.15,2013-09-21 20:10:00,
2013-09-21 17:20:00,70.0,59.8,30.07,SSE,159,7.0,15.0,70,0.00,,,0.00,Wunderground v.1.15,2013-09-21 20:20:00,
2013-09-21 17:30:00,69.5,59.7,30.07,SE,124,8.0,15.0,71,0.00,,,0.00,Wunderground v.1.15,2013-09-21 20:30:00,
2013-09-21 17:40:00,68.8,59.4,30.07,SE,124,6.0,15.0,72,0.00,,,0.00,Wunderground v.1.15,2013-09-21 20:40:00,
2013-09-21 17:50:00,68.7,59.3,30.07,SE,135,6.0,15.0,72,0.00,,,0.00,Wunderground v.1.15,2013-09-21 20:50:00,
2013-09-21 18:00:00,68.3,59.3,30.07,SSW,200,6.0,6.0,73,0.00,,,0.00,Wunderground v.1.15,2013-09-21 21:00:00,
2013-09-21 18:10:00,67.8,59.2,30.06,SSE,154,6.0,6.0,74,0.00,,,0.00,Wunderground v.1.15,2013-09-21 21:10:00,
2013-09-21 18:20:00,67.5,58.9,30.07,South,174,5.0,5.0,74,0.00,,,0.00,Wunderground v.1.15,2013-09-21 21:20:00,
2013-09-21 18:30:00,66.9,58.7,30.06,SSW,192,5.0,15.0,75,0.00,,,0.00,Wunderground v.1.15,2013-09-21 21:30:00,
2013-09-21 18:40:00,66.4,58.6,30.06,South,190,5.0,15.0,76,0.00,,,0.00,Wunderground v.1.15,2013-09-21 21:40:00,
2013-09-21 18:50:00,66.1,58.7,30.06,South,184,6.0,6.0,77,0.00,,,0.00,Wunderground v.1.15,2013-09-21 21:50:00,
2013-09-21 19:00:00,65.8,58.4,30.06,SSE,162,6.0,6.0,77,0.00,,,0.00,Wunderground v.1.15,2013-09-21 22:00:00,
2013-09-21 19:10:00,65.4,58.4,30.06,South,172,5.0,15.0,78,0.00,,,0.00,Wunderground v.1.15,2013-09-21 22:10:00,
2013-09-21 19:20:00,65.0,58.3,30.06,SSW,195,6.0,6.0,79,0.00,,,0.00,Wunderground v.1.15,2013-09-21 22:20:00,
2013-09-21 19:30:00,64.7,58.4,30.06,SE,146,5.0,15.0,80,0.00,,,0.00,Wunderground v.1.15,2013-09-21 22:30:00,
2013-09-21 19:40:00,64.4,58.4,30.06,SSE,155,6.0,15.0,81,0.00,,,0.00,Wunderground v.1.15,2013-09-21 22:40:00,
2013-09-21 19:50:00,64.2,58.2,30.06,South,191,6.0,15.0,81,0.00,,,0.00,Wunderground v.1.15,2013-09-21 22:50:00,
2013-09-21 20:00:00,64.2,58.6,30.06,South,186,7.0,7.0,82,0.00,,,0.00,Wunderground v.1.15,2013-09-21 23:00:00,
2013-09-21 20:10:00,64.1,58.5,30.06,South,175,7.0,15.0,82,0.00,,,0.00,Wunderground v.1.15,2013-09-21 23:10:00,
2013-09-21 20:20:00,64.0,58.4,30.06,South,176,8.0,8.0,82,0.00,,,0.00,Wunderground v.1.15,2013-09-21 23:20:00,
2013-09-21 20:30:00,63.7,58.1,30.06,South,186,8.0,8.0,82,0.00,,,0.00,Wunderground v.1.15,2013-09-21 23:30:00,
2013-09-21 20:40:00,63.5,57.9,30.06,SSW,193,8.0,15.0,82,0.00,,,0.00,Wunderground v.1.15,2013-09-21 23:40:00,
2013-09-21 20:50:00,63.3,58.0,30.06,SSW,212,8.0,8.0,83,0.00,,,0.00,Wunderground v.1.15,2013-09-21 23:50:00,
2013-09-21 21:00:00,63.2,57.9,30.06,South,186,8.0,8.0,83,0.00,,,0.00,Wunderground v.1.15,2013-09-22 00:00:00,
2013-09-21 21:10:00,63.0,58.1,30.06,SE,146,8.0,8.0,84,0.00,,,0.00,Wunderground v.1.15,2013-09-22 00:10:00,
2013-09-21 21:20:00,62.7,58.1,30.06,SSE,158,8.0,15.0,85,0.00,,,0.00,Wunderground v.1.15,2013-09-22 00:20:00,
2013-09-21 21:30:00,62.6,58.0,30.07,SE,135,8.0,8.0,85,0.00,,,0.00,Wunderground v.1.15,2013-09-22 00:30:00,
2013-09-21 21:40:00,62.2,58.0,30.07,SSE,162,6.0,15.0,86,0.00,,,0.00,Wunderground v.1.15,2013-09-22 00:40:00,
2013-09-21 21:50:00,62.0,58.1,30.07,South,187,6.0,6.0,87,0.00,,,0.00,Wunderground v.1.15,2013-09-22 00:50:00,
2013-09-21 22:00:00,61.7,58.1,30.07,South,190,6.0,15.0,88,0.00,,,0.00,Wunderground v.1.15,2013-09-22 01:00:00,
2013-09-21 22:10:00,61.5,58.2,30.07,ESE,117,6.0,15.0,89,0.00,,,0.00,Wunderground v.1.15,2013-09-22 01:10:00,
2013-09-21 22:20:00,61.3,58.3,30.06,South,172,5.0,5.0,90,0.00,,,0.00,Wunderground v.1.15,2013-09-22 01:20:00,
2013-09-21 22:30:00,61.3,58.3,30.07,SSE,163,6.0,6.0,90,0.00,,,0.00,Wunderground v.1.15,2013-09-22 01:30:00,
2013-09-21 22:40:00,61.4,58.4,30.07,SSE,164,8.0,15.0,90,0.00,,,0.00,Wunderground v.1.15,2013-09-22 01:40:00,
2013-09-21 22:50:00,61.4,58.7,30.06,SSW,193,8.0,8.0,91,0.00,,,0.00,Wunderground v.1.15,2013-09-22 01:50:00,
2013-09-21 23:00:00,61.4,58.7,30.06,SE,140,8.0,15.0,91,0.00,,,0.00,Wunderground v.1.15,2013-09-22 02:00:00,
2013-09-21 23:10:00,61.3,58.7,30.06,South,183,8.0,15.0,91,0.00,,,0.00,Wunderground v.1.15,2013-09-22 02:10:00,
2013-09-21 23:20:00,61.3,58.3,30.06,South,170,8.0,8.0,90,0.00,,,0.00,Wunderground v.1.15,2013-09-22 02:20:00,
2013-09-21 23:30:00,61.3,58.3,30.06,SE,146,9.0,15.0,90,0.00,,,0.00,Wunderground v.1.15,2013-09-22 02:30:00,
2013-09-21 23:40:00,61.3,58.3,30.06,South,179,9.0,9.0,90,0.00,,,0.00,Wunderground v.1.15,2013-09-22 02:40:00,
2013-09-21 23:50:00,61.2,58.2,30.05,SSE,163,9.0,9.0,90,0.00,,,0.00,Wunderground v.1.15,2013-09-22 02:50:00,